sensor_id;sensor_type;location;lat;lon;timestamp;P1;durP1;ratioP1;P2;durP2;ratioP2
14592;SDS011;7383;52.354;9.756;2023-02-27T00:01:47;2.25;;;2.05;;
14592;SDS011;7383;52.354;9.756;2023-02-27T00:04:13;2.22;;;2.03;;
14592;SDS011;7383;52.354;9.756;2023-02-27T00:06:40;2.00;;;1.90;;
14592;SDS011;7383;52.354;9.756;2023-02-27T00:09:07;2.45;;;2.15;;
14592;SDS011;7383;52.354;9.756;2023-02-27T00:11:34;2.40;;;1.98;;
14592;SDS011;7383;52.354;9.756;2023-02-27T00:14:02;2.08;;;1.98;;
14592;SDS011;7383;52.354;9.756;2023-02-27T00:16:28;2.15;;;1.90;;
14592;SDS011;7383;52.354;9.756;2023-02-27T00:18:55;2.33;;;2.13;;
14592;SDS011;7383;52.354;9.756;2023-02-27T00:21:25;2.10;;;1.85;;
14592;SDS011;7383;52.354;9.756;2023-02-27T00:23:51;3.10;;;2.20;;
14592;SDS011;7383;52.354;9.756;2023-02-27T00:26:19;2.15;;;1.90;;
14592;SDS011;7383;52.354;9.756;2023-02-27T00:28:45;1.98;;;1.77;;
14592;SDS011;7383;52.354;9.756;2023-02-27T00:31:12;2.03;;;1.90;;
14592;SDS011;7383;52.354;9.756;2023-02-27T00:33:38;2.20;;;2.00;;
14592;SDS011;7383;52.354;9.756;2023-02-27T00:36:05;2.28;;;2.05;;
14592;SDS011;7383;52.354;9.756;2023-02-27T00:38:31;1.90;;;1.77;;
14592;SDS011;7383;52.354;9.756;2023-02-27T00:40:58;2.55;;;2.35;;
14592;SDS011;7383;52.354;9.756;2023-02-27T00:43:26;2.03;;;1.90;;
14592;SDS011;7383;52.354;9.756;2023-02-27T00:45:52;2.20;;;2.00;;
14592;SDS011;7383;52.354;9.756;2023-02-27T00:48:19;1.92;;;1.80;;
14592;SDS011;7383;52.354;9.756;2023-02-27T00:50:45;2.42;;;2.22;;
14592;SDS011;7383;52.354;9.756;2023-02-27T00:53:12;2.15;;;1.95;;
14592;SDS011;7383;52.354;9.756;2023-02-27T00:55:38;2.20;;;2.00;;
14592;SDS011;7383;52.354;9.756;2023-02-27T00:58:05;4.18;;;2.20;;
14592;SDS011;7383;52.354;9.756;2023-02-27T01:00:35;2.30;;;2.10;;
14592;SDS011;7383;52.354;9.756;2023-02-27T01:03:01;2.42;;;2.22;;
14592;SDS011;7383;52.354;9.756;2023-02-27T01:05:28;3.47;;;2.25;;
14592;SDS011;7383;52.354;9.756;2023-02-27T01:07:54;3.55;;;2.45;;
14592;SDS011;7383;52.354;9.756;2023-02-27T01:10:21;2.65;;;2.30;;
14592;SDS011;7383;52.354;9.756;2023-02-27T01:12:47;2.55;;;2.17;;
14592;SDS011;7383;52.354;9.756;2023-02-27T01:15:14;3.10;;;2.40;;
14592;SDS011;7383;52.354;9.756;2023-02-27T01:17:41;3.22;;;2.40;;
14592;SDS011;7383;52.354;9.756;2023-02-27T01:20:08;2.47;;;2.15;;
14592;SDS011;7383;52.354;9.756;2023-02-27T01:22:36;2.60;;;2.35;;
14592;SDS011;7383;52.354;9.756;2023-02-27T01:25:03;2.35;;;2.08;;
14592;SDS011;7383;52.354;9.756;2023-02-27T01:27:30;2.47;;;2.10;;
14592;SDS011;7383;52.354;9.756;2023-02-27T01:29:56;2.90;;;2.38;;
14592;SDS011;7383;52.354;9.756;2023-02-27T01:32:23;3.05;;;2.60;;
14592;SDS011;7383;52.354;9.756;2023-02-27T01:34:50;3.30;;;2.17;;
14592;SDS011;7383;52.354;9.756;2023-02-27T01:37:17;3.00;;;2.75;;
14592;SDS011;7383;52.354;9.756;2023-02-27T01:39:43;2.90;;;2.60;;
14592;SDS011;7383;52.354;9.756;2023-02-27T01:42:16;2.88;;;2.20;;
14592;SDS011;7383;52.354;9.756;2023-02-27T01:45:06;2.75;;;2.42;;
14592;SDS011;7383;52.354;9.756;2023-02-27T01:47:44;2.55;;;2.33;;
14592;SDS011;7383;52.354;9.756;2023-02-27T01:50:15;3.08;;;2.20;;
14592;SDS011;7383;52.354;9.756;2023-02-27T01:52:42;2.45;;;2.25;;
14592;SDS011;7383;52.354;9.756;2023-02-27T01:55:11;2.35;;;2.15;;
14592;SDS011;7383;52.354;9.756;2023-02-27T01:57:39;2.55;;;2.35;;
14592;SDS011;7383;52.354;9.756;2023-02-27T02:00:07;2.55;;;2.35;;
14592;SDS011;7383;52.354;9.756;2023-02-27T02:02:35;2.78;;;2.50;;
14592;SDS011;7383;52.354;9.756;2023-02-27T02:05:05;4.13;;;2.50;;
14592;SDS011;7383;52.354;9.756;2023-02-27T02:07:34;2.47;;;2.28;;
14592;SDS011;7383;52.354;9.756;2023-02-27T02:10:03;2.25;;;2.08;;
14592;SDS011;7383;52.354;9.756;2023-02-27T02:12:32;2.60;;;2.40;;
14592;SDS011;7383;52.354;9.756;2023-02-27T02:15:00;2.65;;;2.45;;
14592;SDS011;7383;52.354;9.756;2023-02-27T02:17:28;3.00;;;2.30;;
14592;SDS011;7383;52.354;9.756;2023-02-27T02:20:14;3.00;;;2.53;;
14592;SDS011;7383;52.354;9.756;2023-02-27T02:23:07;2.55;;;2.35;;
14592;SDS011;7383;52.354;9.756;2023-02-27T02:29:11;2.00;;;1.90;;
14592;SDS011;7383;52.354;9.756;2023-02-27T02:32:10;2.40;;;2.20;;
14592;SDS011;7383;52.354;9.756;2023-02-27T02:35:14;3.60;;;2.55;;
14592;SDS011;7383;52.354;9.756;2023-02-27T02:38:23;2.58;;;2.00;;
14592;SDS011;7383;52.354;9.756;2023-02-27T02:41:01;2.20;;;2.00;;
14592;SDS011;7383;52.354;9.756;2023-02-27T02:43:36;2.00;;;1.90;;
14592;SDS011;7383;52.354;9.756;2023-02-27T02:46:12;3.05;;;2.13;;
14592;SDS011;7383;52.354;9.756;2023-02-27T02:48:43;2.53;;;2.30;;
14592;SDS011;7383;52.354;9.756;2023-02-27T02:51:16;2.28;;;2.13;;
14592;SDS011;7383;52.354;9.756;2023-02-27T02:53:49;2.63;;;1.90;;
14592;SDS011;7383;52.354;9.756;2023-02-27T02:56:21;2.33;;;2.13;;
14592;SDS011;7383;52.354;9.756;2023-02-27T02:58:55;2.38;;;2.10;;
14592;SDS011;7383;52.354;9.756;2023-02-27T03:01:26;2.65;;;2.17;;
14592;SDS011;7383;52.354;9.756;2023-02-27T03:04:01;4.20;;;2.63;;
14592;SDS011;7383;52.354;9.756;2023-02-27T03:06:31;2.40;;;2.20;;
14592;SDS011;7383;52.354;9.756;2023-02-27T03:09:02;3.25;;;2.70;;
14592;SDS011;7383;52.354;9.756;2023-02-27T03:11:33;3.00;;;2.42;;
14592;SDS011;7383;52.354;9.756;2023-02-27T03:14:05;3.88;;;2.90;;
14592;SDS011;7383;52.354;9.756;2023-02-27T03:16:38;2.53;;;2.30;;
14592;SDS011;7383;52.354;9.756;2023-02-27T03:19:09;2.60;;;2.40;;
14592;SDS011;7383;52.354;9.756;2023-02-27T03:21:40;2.95;;;2.70;;
14592;SDS011;7383;52.354;9.756;2023-02-27T03:24:13;3.10;;;2.85;;
14592;SDS011;7383;52.354;9.756;2023-02-27T03:26:45;3.67;;;2.80;;
14592;SDS011;7383;52.354;9.756;2023-02-27T03:29:15;3.05;;;2.85;;
14592;SDS011;7383;52.354;9.756;2023-02-27T03:31:47;2.90;;;2.70;;
14592;SDS011;7383;52.354;9.756;2023-02-27T03:34:21;3.75;;;3.05;;
14592;SDS011;7383;52.354;9.756;2023-02-27T03:36:53;3.53;;;3.22;;
14592;SDS011;7383;52.354;9.756;2023-02-27T03:39:30;5.38;;;3.63;;
14592;SDS011;7383;52.354;9.756;2023-02-27T03:42:05;3.95;;;3.50;;
14592;SDS011;7383;52.354;9.756;2023-02-27T03:44:38;2.95;;;2.65;;
14592;SDS011;7383;52.354;9.756;2023-02-27T03:47:13;3.67;;;3.25;;
14592;SDS011;7383;52.354;9.756;2023-02-27T03:49:40;4.45;;;3.25;;
14592;SDS011;7383;52.354;9.756;2023-02-27T03:52:06;4.97;;;3.13;;
14592;SDS011;7383;52.354;9.756;2023-02-27T03:54:35;3.13;;;2.90;;
14592;SDS011;7383;52.354;9.756;2023-02-27T03:57:05;3.33;;;3.00;;
14592;SDS011;7383;52.354;9.756;2023-02-27T03:59:32;3.17;;;2.88;;
14592;SDS011;7383;52.354;9.756;2023-02-27T04:02:01;2.85;;;2.65;;
14592;SDS011;7383;52.354;9.756;2023-02-27T04:04:29;3.90;;;2.88;;
14592;SDS011;7383;52.354;9.756;2023-02-27T04:06:58;3.00;;;2.70;;
14592;SDS011;7383;52.354;9.756;2023-02-27T04:09:52;2.80;;;2.60;;
14592;SDS011;7383;52.354;9.756;2023-02-27T04:12:35;2.88;;;2.50;;
14592;SDS011;7383;52.354;9.756;2023-02-27T04:15:19;2.55;;;2.35;;
14592;SDS011;7383;52.354;9.756;2023-02-27T04:17:54;2.75;;;2.40;;
14592;SDS011;7383;52.354;9.756;2023-02-27T04:20:35;2.80;;;2.53;;
14592;SDS011;7383;52.354;9.756;2023-02-27T04:23:08;3.00;;;2.50;;
14592;SDS011;7383;52.354;9.756;2023-02-27T04:25:42;2.95;;;2.55;;
14592;SDS011;7383;52.354;9.756;2023-02-27T04:28:16;3.25;;;2.85;;
14592;SDS011;7383;52.354;9.756;2023-02-27T04:30:54;2.92;;;2.72;;
14592;SDS011;7383;52.354;9.756;2023-02-27T04:33:28;2.83;;;2.63;;
14592;SDS011;7383;52.354;9.756;2023-02-27T04:36:06;2.60;;;2.40;;
14592;SDS011;7383;52.354;9.756;2023-02-27T04:38:36;2.42;;;2.22;;
14592;SDS011;7383;52.354;9.756;2023-02-27T04:41:11;3.03;;;2.33;;
14592;SDS011;7383;52.354;9.756;2023-02-27T04:43:41;4.07;;;2.35;;
14592;SDS011;7383;52.354;9.756;2023-02-27T04:46:11;2.50;;;2.30;;
14592;SDS011;7383;52.354;9.756;2023-02-27T04:48:44;2.50;;;2.30;;
14592;SDS011;7383;52.354;9.756;2023-02-27T04:51:16;4.00;;;2.50;;
14592;SDS011;7383;52.354;9.756;2023-02-27T04:53:48;2.45;;;2.20;;
14592;SDS011;7383;52.354;9.756;2023-02-27T04:56:22;2.55;;;2.40;;
14592;SDS011;7383;52.354;9.756;2023-02-27T04:58:54;2.67;;;2.38;;
14592;SDS011;7383;52.354;9.756;2023-02-27T05:01:24;2.70;;;2.50;;
14592;SDS011;7383;52.354;9.756;2023-02-27T05:03:57;2.78;;;2.55;;
14592;SDS011;7383;52.354;9.756;2023-02-27T05:06:26;2.90;;;2.60;;
14592;SDS011;7383;52.354;9.756;2023-02-27T05:08:58;2.85;;;2.65;;
14592;SDS011;7383;52.354;9.756;2023-02-27T05:11:31;3.00;;;2.70;;
14592;SDS011;7383;52.354;9.756;2023-02-27T05:14:04;3.67;;;2.33;;
14592;SDS011;7383;52.354;9.756;2023-02-27T05:16:37;2.70;;;2.22;;
14592;SDS011;7383;52.354;9.756;2023-02-27T05:19:08;2.97;;;2.67;;
14592;SDS011;7383;52.354;9.756;2023-02-27T05:21:36;2.90;;;2.70;;
14592;SDS011;7383;52.354;9.756;2023-02-27T05:24:10;2.70;;;2.50;;
14592;SDS011;7383;52.354;9.756;2023-02-27T05:26:51;2.70;;;2.50;;
14592;SDS011;7383;52.354;9.756;2023-02-27T05:29:27;2.72;;;2.53;;
14592;SDS011;7383;52.354;9.756;2023-02-27T05:32:02;2.75;;;2.55;;
14592;SDS011;7383;52.354;9.756;2023-02-27T05:34:33;2.70;;;2.50;;
14592;SDS011;7383;52.354;9.756;2023-02-27T05:37:06;3.03;;;2.72;;
14592;SDS011;7383;52.354;9.756;2023-02-27T05:39:35;3.17;;;2.88;;
14592;SDS011;7383;52.354;9.756;2023-02-27T05:42:08;2.85;;;2.60;;
14592;SDS011;7383;52.354;9.756;2023-02-27T05:44:41;2.83;;;2.50;;
14592;SDS011;7383;52.354;9.756;2023-02-27T05:47:14;2.60;;;2.40;;
14592;SDS011;7383;52.354;9.756;2023-02-27T05:49:46;3.33;;;3.00;;
14592;SDS011;7383;52.354;9.756;2023-02-27T05:52:17;3.13;;;2.72;;
14592;SDS011;7383;52.354;9.756;2023-02-27T05:54:47;2.50;;;2.30;;
14592;SDS011;7383;52.354;9.756;2023-02-27T05:57:21;2.60;;;2.40;;
14592;SDS011;7383;52.354;9.756;2023-02-27T05:59:53;3.00;;;2.80;;
14592;SDS011;7383;52.354;9.756;2023-02-27T06:02:25;3.65;;;2.97;;
14592;SDS011;7383;52.354;9.756;2023-02-27T06:04:51;2.78;;;2.58;;
14592;SDS011;7383;52.354;9.756;2023-02-27T06:07:19;2.90;;;2.70;;
14592;SDS011;7383;52.354;9.756;2023-02-27T06:09:45;2.88;;;2.67;;
14592;SDS011;7383;52.354;9.756;2023-02-27T06:12:13;2.90;;;2.70;;
14592;SDS011;7383;52.354;9.756;2023-02-27T06:14:41;3.10;;;2.80;;
14592;SDS011;7383;52.354;9.756;2023-02-27T06:17:07;2.78;;;2.58;;
14592;SDS011;7383;52.354;9.756;2023-02-27T06:19:33;2.80;;;2.60;;
14592;SDS011;7383;52.354;9.756;2023-02-27T06:22:00;3.22;;;2.92;;
14592;SDS011;7383;52.354;9.756;2023-02-27T06:24:26;3.08;;;2.80;;
14592;SDS011;7383;52.354;9.756;2023-02-27T06:26:53;5.32;;;3.47;;
14592;SDS011;7383;52.354;9.756;2023-02-27T06:29:19;3.38;;;3.08;;
14592;SDS011;7383;52.354;9.756;2023-02-27T06:31:47;3.47;;;3.17;;
14592;SDS011;7383;52.354;9.756;2023-02-27T06:34:13;3.97;;;3.10;;
14592;SDS011;7383;52.354;9.756;2023-02-27T06:36:45;3.63;;;3.20;;
14592;SDS011;7383;52.354;9.756;2023-02-27T06:39:12;3.08;;;2.78;;
14592;SDS011;7383;52.354;9.756;2023-02-27T06:41:39;3.10;;;2.80;;
14592;SDS011;7383;52.354;9.756;2023-02-27T06:44:05;3.35;;;2.97;;
14592;SDS011;7383;52.354;9.756;2023-02-27T06:46:31;3.80;;;3.42;;
14592;SDS011;7383;52.354;9.756;2023-02-27T06:48:59;3.25;;;2.92;;
14592;SDS011;7383;52.354;9.756;2023-02-27T06:51:26;3.70;;;3.20;;
14592;SDS011;7383;52.354;9.756;2023-02-27T06:53:52;3.20;;;3.00;;
14592;SDS011;7383;52.354;9.756;2023-02-27T06:56:19;3.95;;;3.20;;
14592;SDS011;7383;52.354;9.756;2023-02-27T06:58:45;3.72;;;3.42;;
14592;SDS011;7383;52.354;9.756;2023-02-27T07:01:11;3.47;;;3.00;;
14592;SDS011;7383;52.354;9.756;2023-02-27T07:03:38;3.17;;;2.88;;
14592;SDS011;7383;52.354;9.756;2023-02-27T07:06:06;3.08;;;2.83;;
14592;SDS011;7383;52.354;9.756;2023-02-27T07:08:35;3.72;;;3.28;;
14592;SDS011;7383;52.354;9.756;2023-02-27T07:11:01;4.47;;;4.07;;
14592;SDS011;7383;52.354;9.756;2023-02-27T07:13:28;4.72;;;3.40;;
14592;SDS011;7383;52.354;9.756;2023-02-27T07:15:54;3.65;;;3.35;;
14592;SDS011;7383;52.354;9.756;2023-02-27T07:18:21;3.50;;;2.97;;
14592;SDS011;7383;52.354;9.756;2023-02-27T07:20:48;3.28;;;2.97;;
14592;SDS011;7383;52.354;9.756;2023-02-27T07:23:17;4.82;;;3.53;;
14592;SDS011;7383;52.354;9.756;2023-02-27T07:25:45;3.60;;;3.08;;
14592;SDS011;7383;52.354;9.756;2023-02-27T07:28:11;3.53;;;3.17;;
14592;SDS011;7383;52.354;9.756;2023-02-27T07:30:38;3.90;;;3.60;;
14592;SDS011;7383;52.354;9.756;2023-02-27T07:33:05;3.50;;;3.20;;
14592;SDS011;7383;52.354;9.756;2023-02-27T07:35:32;3.53;;;3.22;;
14592;SDS011;7383;52.354;9.756;2023-02-27T07:37:58;3.72;;;3.40;;
14592;SDS011;7383;52.354;9.756;2023-02-27T07:40:26;4.22;;;3.15;;
14592;SDS011;7383;52.354;9.756;2023-02-27T07:42:52;3.67;;;3.40;;
14592;SDS011;7383;52.354;9.756;2023-02-27T07:45:19;4.75;;;3.63;;
14592;SDS011;7383;52.354;9.756;2023-02-27T07:47:46;3.67;;;3.38;;
14592;SDS011;7383;52.354;9.756;2023-02-27T07:50:13;3.47;;;3.17;;
14592;SDS011;7383;52.354;9.756;2023-02-27T07:52:40;4.53;;;4.03;;
14592;SDS011;7383;52.354;9.756;2023-02-27T07:55:07;4.57;;;4.17;;
14592;SDS011;7383;52.354;9.756;2023-02-27T07:57:36;3.60;;;3.30;;
14592;SDS011;7383;52.354;9.756;2023-02-27T08:00:03;3.42;;;3.13;;
14592;SDS011;7383;52.354;9.756;2023-02-27T08:02:31;4.43;;;3.05;;
14592;SDS011;7383;52.354;9.756;2023-02-27T08:04:58;4.30;;;3.90;;
14592;SDS011;7383;52.354;9.756;2023-02-27T08:07:24;3.70;;;3.38;;
14592;SDS011;7383;52.354;9.756;2023-02-27T08:09:51;4.32;;;3.55;;
14592;SDS011;7383;52.354;9.756;2023-02-27T08:12:17;3.38;;;3.08;;
14592;SDS011;7383;52.354;9.756;2023-02-27T08:14:46;3.10;;;2.85;;
14592;SDS011;7383;52.354;9.756;2023-02-27T08:17:13;3.75;;;3.42;;
14592;SDS011;7383;52.354;9.756;2023-02-27T08:19:39;3.70;;;3.25;;
14592;SDS011;7383;52.354;9.756;2023-02-27T08:22:06;6.57;;;3.88;;
14592;SDS011;7383;52.354;9.756;2023-02-27T08:24:32;3.30;;;2.95;;
14592;SDS011;7383;52.354;9.756;2023-02-27T08:26:58;3.80;;;3.10;;
14592;SDS011;7383;52.354;9.756;2023-02-27T08:29:25;3.60;;;3.20;;
14592;SDS011;7383;52.354;9.756;2023-02-27T08:31:53;4.03;;;3.45;;
14592;SDS011;7383;52.354;9.756;2023-02-27T08:34:19;3.60;;;3.30;;
14592;SDS011;7383;52.354;9.756;2023-02-27T08:36:46;3.65;;;3.35;;
14592;SDS011;7383;52.354;9.756;2023-02-27T08:39:12;4.57;;;3.63;;
14592;SDS011;7383;52.354;9.756;2023-02-27T08:41:38;3.60;;;3.20;;
14592;SDS011;7383;52.354;9.756;2023-02-27T08:44:05;3.42;;;3.13;;
14592;SDS011;7383;52.354;9.756;2023-02-27T08:46:31;4.40;;;3.47;;
14592;SDS011;7383;52.354;9.756;2023-02-27T08:48:59;3.22;;;2.83;;
14592;SDS011;7383;52.354;9.756;2023-02-27T08:51:26;3.70;;;3.10;;
14592;SDS011;7383;52.354;9.756;2023-02-27T08:53:52;3.83;;;3.08;;
14592;SDS011;7383;52.354;9.756;2023-02-27T08:56:22;3.55;;;3.25;;
14592;SDS011;7383;52.354;9.756;2023-02-27T08:58:49;3.95;;;3.63;;
14592;SDS011;7383;52.354;9.756;2023-02-27T09:01:16;3.10;;;2.90;;
14592;SDS011;7383;52.354;9.756;2023-02-27T09:03:43;3.53;;;2.92;;
14592;SDS011;7383;52.354;9.756;2023-02-27T09:06:11;3.50;;;3.20;;
14592;SDS011;7383;52.354;9.756;2023-02-27T09:08:38;4.43;;;3.35;;
14592;SDS011;7383;52.354;9.756;2023-02-27T09:11:05;3.10;;;2.85;;
14592;SDS011;7383;52.354;9.756;2023-02-27T09:13:31;4.57;;;3.53;;
14592;SDS011;7383;52.354;9.756;2023-02-27T09:15:58;5.53;;;3.60;;
14592;SDS011;7383;52.354;9.756;2023-02-27T09:18:24;3.83;;;2.92;;
14592;SDS011;7383;52.354;9.756;2023-02-27T09:20:51;3.17;;;2.75;;
14592;SDS011;7383;52.354;9.756;2023-02-27T09:23:19;2.97;;;2.53;;
14592;SDS011;7383;52.354;9.756;2023-02-27T09:25:46;2.85;;;2.65;;
14592;SDS011;7383;52.354;9.756;2023-02-27T09:28:12;3.10;;;2.67;;
14592;SDS011;7383;52.354;9.756;2023-02-27T09:30:39;3.50;;;2.90;;
14592;SDS011;7383;52.354;9.756;2023-02-27T09:33:05;3.10;;;2.78;;
14592;SDS011;7383;52.354;9.756;2023-02-27T09:35:32;3.40;;;2.90;;
14592;SDS011;7383;52.354;9.756;2023-02-27T09:40:50;3.42;;;3.13;;
14592;SDS011;7383;52.354;9.756;2023-02-27T09:43:19;3.17;;;2.88;;
14592;SDS011;7383;52.354;9.756;2023-02-27T09:45:50;3.22;;;2.28;;
14592;SDS011;7383;52.354;9.756;2023-02-27T09:48:33;2.90;;;2.60;;
14592;SDS011;7383;52.354;9.756;2023-02-27T09:51:04;3.17;;;2.33;;
14592;SDS011;7383;52.354;9.756;2023-02-27T09:53:34;3.58;;;2.60;;
14592;SDS011;7383;52.354;9.756;2023-02-27T09:56:06;2.35;;;2.15;;
14592;SDS011;7383;52.354;9.756;2023-02-27T09:58:39;2.67;;;2.00;;
14592;SDS011;7383;52.354;9.756;2023-02-27T10:01:12;3.40;;;2.15;;
14592;SDS011;7383;52.354;9.756;2023-02-27T10:03:46;2.55;;;2.30;;
14592;SDS011;7383;52.354;9.756;2023-02-27T10:06:25;2.83;;;2.00;;
14592;SDS011;7383;52.354;9.756;2023-02-27T10:09:03;1.90;;;1.80;;
14592;SDS011;7383;52.354;9.756;2023-02-27T10:11:42;3.83;;;2.80;;
14592;SDS011;7383;52.354;9.756;2023-02-27T10:14:21;2.67;;;2.10;;
14592;SDS011;7383;52.354;9.756;2023-02-27T10:17:00;3.00;;;2.10;;
14592;SDS011;7383;52.354;9.756;2023-02-27T10:19:31;2.60;;;2.05;;
14592;SDS011;7383;52.354;9.756;2023-02-27T10:22:02;2.33;;;2.05;;
14592;SDS011;7383;52.354;9.756;2023-02-27T10:24:34;3.92;;;2.53;;
14592;SDS011;7383;52.354;9.756;2023-02-27T10:27:10;3.08;;;2.20;;
14592;SDS011;7383;52.354;9.756;2023-02-27T10:29:41;2.50;;;2.30;;
14592;SDS011;7383;52.354;9.756;2023-02-27T10:32:09;3.15;;;2.10;;
14592;SDS011;7383;52.354;9.756;2023-02-27T10:34:40;2.45;;;2.10;;
14592;SDS011;7383;52.354;9.756;2023-02-27T10:37:11;2.45;;;2.15;;
14592;SDS011;7383;52.354;9.756;2023-02-27T10:39:43;3.20;;;2.10;;
14592;SDS011;7383;52.354;9.756;2023-02-27T10:45:25;2.47;;;2.10;;
14592;SDS011;7383;52.354;9.756;2023-02-27T10:47:52;2.25;;;2.03;;
14592;SDS011;7383;52.354;9.756;2023-02-27T10:50:20;2.40;;;2.17;;
14592;SDS011;7383;52.354;9.756;2023-02-27T10:52:58;4.57;;;2.55;;
14592;SDS011;7383;52.354;9.756;2023-02-27T10:55:27;3.13;;;2.10;;
14592;SDS011;7383;52.354;9.756;2023-02-27T10:57:55;2.45;;;2.20;;
14592;SDS011;7383;52.354;9.756;2023-02-27T11:00:33;2.40;;;2.10;;
14592;SDS011;7383;52.354;9.756;2023-02-27T11:03:06;3.13;;;2.00;;
14592;SDS011;7383;52.354;9.756;2023-02-27T11:05:50;2.35;;;1.90;;
14592;SDS011;7383;52.354;9.756;2023-02-27T11:08:19;2.70;;;2.00;;
14592;SDS011;7383;52.354;9.756;2023-02-27T11:10:55;1.88;;;1.77;;
14592;SDS011;7383;52.354;9.756;2023-02-27T11:13:24;2.83;;;2.22;;
14592;SDS011;7383;52.354;9.756;2023-02-27T11:16:02;3.08;;;2.20;;
14592;SDS011;7383;52.354;9.756;2023-02-27T11:18:34;2.20;;;2.00;;
14592;SDS011;7383;52.354;9.756;2023-02-27T11:21:19;2.58;;;2.35;;
14592;SDS011;7383;52.354;9.756;2023-02-27T11:23:56;3.17;;;2.35;;
14592;SDS011;7383;52.354;9.756;2023-02-27T11:26:26;2.58;;;2.10;;
14592;SDS011;7383;52.354;9.756;2023-02-27T11:29:04;2.25;;;2.05;;
14592;SDS011;7383;52.354;9.756;2023-02-27T11:31:33;1.95;;;1.80;;
14592;SDS011;7383;52.354;9.756;2023-02-27T11:34:01;2.28;;;1.90;;
14592;SDS011;7383;52.354;9.756;2023-02-27T11:36:39;2.50;;;2.28;;
14592;SDS011;7383;52.354;9.756;2023-02-27T11:39:19;2.88;;;2.30;;
14592;SDS011;7383;52.354;9.756;2023-02-27T11:41:55;2.33;;;2.10;;
14592;SDS011;7383;52.354;9.756;2023-02-27T11:44:24;3.78;;;1.85;;
14592;SDS011;7383;52.354;9.756;2023-02-27T11:47:08;2.65;;;1.95;;
14592;SDS011;7383;52.354;9.756;2023-02-27T11:52:57;2.20;;;1.77;;
14592;SDS011;7383;52.354;9.756;2023-02-27T11:55:41;2.30;;;1.80;;
14592;SDS011;7383;52.354;9.756;2023-02-27T11:58:11;2.33;;;1.80;;
14592;SDS011;7383;52.354;9.756;2023-02-27T12:00:41;1.48;;;1.35;;
14592;SDS011;7383;52.354;9.756;2023-02-27T12:03:15;1.60;;;1.48;;
14592;SDS011;7383;52.354;9.756;2023-02-27T12:05:46;1.70;;;1.60;;
14592;SDS011;7383;52.354;9.756;2023-02-27T12:08:16;2.00;;;1.40;;
14592;SDS011;7383;52.354;9.756;2023-02-27T12:10:57;2.03;;;1.77;;
14592;SDS011;7383;52.354;9.756;2023-02-27T12:13:29;1.60;;;1.50;;
14592;SDS011;7383;52.354;9.756;2023-02-27T12:16:00;1.45;;;1.35;;
14592;SDS011;7383;52.354;9.756;2023-02-27T12:18:37;1.67;;;1.58;;
14592;SDS011;7383;52.354;9.756;2023-02-27T12:21:27;1.35;;;1.25;;
14592;SDS011;7383;52.354;9.756;2023-02-27T12:24:29;2.30;;;1.42;;
14592;SDS011;7383;52.354;9.756;2023-02-27T12:29:38;1.40;;;1.30;;
14592;SDS011;7383;52.354;9.756;2023-02-27T12:32:10;1.25;;;1.10;;
14592;SDS011;7383;52.354;9.756;2023-02-27T12:34:45;1.30;;;1.20;;
14592;SDS011;7383;52.354;9.756;2023-02-27T12:37:22;2.22;;;1.38;;
14592;SDS011;7383;52.354;9.756;2023-02-27T12:39:51;1.40;;;1.08;;
14592;SDS011;7383;52.354;9.756;2023-02-27T12:42:25;1.30;;;1.20;;
14592;SDS011;7383;52.354;9.756;2023-02-27T12:45:16;1.05;;;0.90;;
14592;SDS011;7383;52.354;9.756;2023-02-27T12:47:55;1.17;;;1.10;;
14592;SDS011;7383;52.354;9.756;2023-02-27T12:50:40;1.20;;;1.10;;
14592;SDS011;7383;52.354;9.756;2023-02-27T12:53:21;0.98;;;0.98;;
14592;SDS011;7383;52.354;9.756;2023-02-27T12:55:56;1.40;;;1.30;;
14592;SDS011;7383;52.354;9.756;2023-02-27T12:58:34;1.35;;;1.20;;
14592;SDS011;7383;52.354;9.756;2023-02-27T13:01:11;1.50;;;1.40;;
14592;SDS011;7383;52.354;9.756;2023-02-27T13:03:49;1.35;;;1.25;;
14592;SDS011;7383;52.354;9.756;2023-02-27T13:06:24;1.40;;;1.30;;
14592;SDS011;7383;52.354;9.756;2023-02-27T13:11:54;1.65;;;1.25;;
14592;SDS011;7383;52.354;9.756;2023-02-27T13:17:16;1.50;;;1.40;;
14592;SDS011;7383;52.354;9.756;2023-02-27T13:19:49;1.02;;;0.93;;
14592;SDS011;7383;52.354;9.756;2023-02-27T13:22:22;1.10;;;1.10;;
14592;SDS011;7383;52.354;9.756;2023-02-27T13:24:59;1.33;;;1.23;;
14592;SDS011;7383;52.354;9.756;2023-02-27T13:27:34;1.95;;;1.30;;
14592;SDS011;7383;52.354;9.756;2023-02-27T13:30:10;1.30;;;1.20;;
14592;SDS011;7383;52.354;9.756;2023-02-27T13:32:49;1.52;;;1.20;;
14592;SDS011;7383;52.354;9.756;2023-02-27T13:35:44;0.90;;;0.88;;
14592;SDS011;7383;52.354;9.756;2023-02-27T13:38:32;1.40;;;1.30;;
14592;SDS011;7383;52.354;9.756;2023-02-27T13:53:30;1.08;;;1.08;;
14592;SDS011;7383;52.354;9.756;2023-02-27T13:59:20;1.25;;;1.25;;
14592;SDS011;7383;52.354;9.756;2023-02-27T14:01:56;1.15;;;1.05;;
14592;SDS011;7383;52.354;9.756;2023-02-27T14:04:26;1.00;;;1.00;;
14592;SDS011;7383;52.354;9.756;2023-02-27T14:06:57;1.20;;;1.10;;
14592;SDS011;7383;52.354;9.756;2023-02-27T14:09:32;1.58;;;1.17;;
14592;SDS011;7383;52.354;9.756;2023-02-27T14:12:03;1.10;;;1.10;;
14592;SDS011;7383;52.354;9.756;2023-02-27T14:14:40;1.15;;;1.05;;
14592;SDS011;7383;52.354;9.756;2023-02-27T14:17:11;1.17;;;1.10;;
14592;SDS011;7383;52.354;9.756;2023-02-27T14:19:46;2.13;;;0.90;;
14592;SDS011;7383;52.354;9.756;2023-02-27T14:22:34;1.33;;;1.23;;
14592;SDS011;7383;52.354;9.756;2023-02-27T14:25:10;1.08;;;1.00;;
14592;SDS011;7383;52.354;9.756;2023-02-27T14:27:46;1.45;;;1.13;;
14592;SDS011;7383;52.354;9.756;2023-02-27T14:30:29;0.80;;;0.80;;
14592;SDS011;7383;52.354;9.756;2023-02-27T14:33:00;0.80;;;0.77;;
14592;SDS011;7383;52.354;9.756;2023-02-27T14:35:32;1.27;;;0.85;;
14592;SDS011;7383;52.354;9.756;2023-02-27T14:37:58;0.80;;;0.75;;
14592;SDS011;7383;52.354;9.756;2023-02-27T14:40:39;0.88;;;0.88;;
14592;SDS011;7383;52.354;9.756;2023-02-27T14:43:22;0.80;;;0.80;;
14592;SDS011;7383;52.354;9.756;2023-02-27T14:46:13;0.65;;;0.60;;
14592;SDS011;7383;52.354;9.756;2023-02-27T14:48:51;0.68;;;0.68;;
14592;SDS011;7383;52.354;9.756;2023-02-27T14:51:19;0.70;;;0.70;;
14592;SDS011;7383;52.354;9.756;2023-02-27T14:54:01;1.00;;;0.90;;
14592;SDS011;7383;52.354;9.756;2023-02-27T14:56:35;0.90;;;0.90;;
14592;SDS011;7383;52.354;9.756;2023-02-27T14:59:02;0.70;;;0.70;;
14592;SDS011;7383;52.354;9.756;2023-02-27T15:01:49;1.05;;;0.80;;
14592;SDS011;7383;52.354;9.756;2023-02-27T15:04:17;0.90;;;0.90;;
14592;SDS011;7383;52.354;9.756;2023-02-27T15:06:45;0.60;;;0.60;;
14592;SDS011;7383;52.354;9.756;2023-02-27T15:09:17;1.35;;;0.85;;
14592;SDS011;7383;52.354;9.756;2023-02-27T15:11:53;1.52;;;0.88;;
14592;SDS011;7383;52.354;9.756;2023-02-27T15:14:22;0.95;;;0.80;;
14592;SDS011;7383;52.354;9.756;2023-02-27T15:16:56;1.00;;;0.60;;
14592;SDS011;7383;52.354;9.756;2023-02-27T15:19:25;1.58;;;0.88;;
14592;SDS011;7383;52.354;9.756;2023-02-27T15:21:53;0.95;;;0.70;;
14592;SDS011;7383;52.354;9.756;2023-02-27T15:24:25;0.80;;;0.80;;
14592;SDS011;7383;52.354;9.756;2023-02-27T15:27:02;1.15;;;1.05;;
14592;SDS011;7383;52.354;9.756;2023-02-27T15:29:32;0.52;;;0.52;;
14592;SDS011;7383;52.354;9.756;2023-02-27T15:32:01;0.80;;;0.80;;
14592;SDS011;7383;52.354;9.756;2023-02-27T15:34:28;0.88;;;0.85;;
14592;SDS011;7383;52.354;9.756;2023-02-27T15:39:29;1.05;;;0.93;;
14592;SDS011;7383;52.354;9.756;2023-02-27T15:42:02;1.20;;;1.10;;
14592;SDS011;7383;52.354;9.756;2023-02-27T15:44:32;1.20;;;0.73;;
14592;SDS011;7383;52.354;9.756;2023-02-27T15:47:05;0.70;;;0.63;;
14592;SDS011;7383;52.354;9.756;2023-02-27T15:49:33;0.80;;;0.80;;
14592;SDS011;7383;52.354;9.756;2023-02-27T15:52:03;0.88;;;0.88;;
14592;SDS011;7383;52.354;9.756;2023-02-27T15:54:41;1.08;;;0.98;;
14592;SDS011;7383;52.354;9.756;2023-02-27T15:57:14;0.80;;;0.80;;
14592;SDS011;7383;52.354;9.756;2023-02-27T15:59:41;0.90;;;0.90;;
14592;SDS011;7383;52.354;9.756;2023-02-27T16:02:11;0.90;;;0.90;;
14592;SDS011;7383;52.354;9.756;2023-02-27T16:04:43;0.70;;;0.70;;
14592;SDS011;7383;52.354;9.756;2023-02-27T16:07:13;0.80;;;0.80;;